createdAt,value
2022-10-01T00:09:06.158Z,17.67
2022-10-01T00:19:12.461Z,17.37
2022-10-01T00:29:19.080Z,19.70
2022-10-01T00:39:23.935Z,18.73
2022-10-01T00:49:29.353Z,18.50
2022-10-01T00:59:31.699Z,17.77
2022-10-01T01:09:49.976Z,17.47
2022-10-01T01:20:22.353Z,16.23
2022-10-01T01:30:26.954Z,17.67
2022-10-01T01:40:30.946Z,21.70
2022-10-01T01:50:40.703Z,24.63
2022-10-01T02:00:42.998Z,25.30
2022-10-01T02:11:06.660Z,26.93
2022-10-01T02:21:28.832Z,25.50
2022-10-01T02:31:36.320Z,24.90
2022-10-01T02:41:40.755Z,25.23
2022-10-01T02:51:58.066Z,26.27
2022-10-01T03:02:00.710Z,24.90
2022-10-01T03:12:07.309Z,24.70
2022-10-01T03:22:12.801Z,23.53
2022-10-01T03:32:16.526Z,21.83
2022-10-01T03:42:19.570Z,21.87
2022-10-01T03:52:23.783Z,21.57
2022-10-01T04:02:27.928Z,22.37
2022-10-01T04:12:32.346Z,23.07
2022-10-01T04:22:40.917Z,23.03
2022-10-01T04:32:42.872Z,23.23
2022-10-01T04:42:44.996Z,20.83
2022-10-01T04:52:47.421Z,19.73
2022-10-01T05:02:50.542Z,19.90
2022-10-01T05:12:53.800Z,20.50
2022-10-01T05:22:56.706Z,21.97
2022-10-01T05:33:01.960Z,21.60
2022-10-01T05:43:08.255Z,21.90
2022-10-01T05:53:11.711Z,21.93
2022-10-01T06:03:20.646Z,24.30
2022-10-01T06:13:26.850Z,20.53
2022-10-01T06:23:32.302Z,23.42
2022-10-01T06:33:39.265Z,20.73
2022-10-01T06:43:43.621Z,18.90
2022-10-01T06:53:50.253Z,17.40
2022-10-01T07:03:54.712Z,16.23
2022-10-01T07:13:57.984Z,18.50
2022-10-01T07:24:11.855Z,17.17
2022-10-01T07:34:16.355Z,19.07
2022-10-01T07:44:22.254Z,22.17
2022-10-01T07:54:28.161Z,19.03
2022-10-01T08:04:50.771Z,17.87
2022-10-01T08:14:52.787Z,20.20
2022-10-01T08:25:02.376Z,13.97
2022-10-01T08:35:06.248Z,15.35
2022-10-01T08:45:19.675Z,12.90
2022-10-01T08:55:27.506Z,13.23
2022-10-01T09:05:58.832Z,14.20
2022-10-01T09:16:00.857Z,14.20
2022-10-01T09:26:05.624Z,11.63
2022-10-01T09:36:37.903Z,12.03
2022-10-01T09:46:46.683Z,17.40
2022-10-01T09:56:55.378Z,13.63
2022-10-01T10:07:06.534Z,11.77
2022-10-01T10:17:17.025Z,14.13
2022-10-01T10:27:29.651Z,12.93
2022-10-01T10:37:37.595Z,12.83
2022-10-01T10:47:47.845Z,13.63
2022-10-01T10:57:57.563Z,14.67
2022-10-01T11:08:03.381Z,15.73
2022-10-01T11:18:27.712Z,14.93
2022-10-01T11:29:00.100Z,16.43
2022-10-01T11:39:17.715Z,12.10
2022-10-01T11:49:46.366Z,13.82
2022-10-01T11:59:56.156Z,11.80
2022-10-01T12:10:07.084Z,10.70
2022-10-01T12:20:22.360Z,9.97
2022-10-01T12:30:40.606Z,8.85
2022-10-01T12:40:51.534Z,10.00
2022-10-01T12:51:21.288Z,8.57
2022-10-01T13:01:54.571Z,8.40
2022-10-01T13:12:12.246Z,6.13
2022-10-01T13:22:32.856Z,6.83
2022-10-01T13:32:51.482Z,6.40
2022-10-01T13:42:58.525Z,5.85
2022-10-01T13:53:31.257Z,5.68
2022-10-01T14:03:58.653Z,6.50
2022-10-01T14:14:42.819Z,6.40
2022-10-01T14:25:03.260Z,6.50
2022-10-01T14:35:28.573Z,8.35
2022-10-01T14:45:34.394Z,7.68
2022-10-01T14:55:43.800Z,10.30
2022-10-01T15:05:49.338Z,9.83
2022-10-01T15:15:58.276Z,9.17
2022-10-01T15:26:00.967Z,10.63
2022-10-01T15:36:07.698Z,11.30
2022-10-01T15:46:35.575Z,11.70
2022-10-01T15:56:41.839Z,10.20
2022-10-01T16:06:45.705Z,12.37
2022-10-01T16:16:50.948Z,12.27
2022-10-01T16:27:02.216Z,11.67
2022-10-01T16:37:19.560Z,12.13
2022-10-01T16:47:24.059Z,12.27
2022-10-01T16:57:26.123Z,12.00
2022-10-01T17:07:32.125Z,11.90
2022-10-01T17:17:34.660Z,12.30
2022-10-01T17:27:36.598Z,13.77
2022-10-01T17:37:38.713Z,14.73
2022-10-01T17:47:45.384Z,15.80
2022-10-01T17:57:48.278Z,16.70
2022-10-01T18:07:50.358Z,16.80
2022-10-01T18:18:38.062Z,16.17
2022-10-01T18:28:19.253Z,17.63
2022-10-01T18:38:28.447Z,17.43
2022-10-01T18:48:40.516Z,17.97
2022-10-01T18:59:46.582Z,18.20
2022-10-01T19:10:08.363Z,18.50
2022-10-01T19:20:29.273Z,19.50
2022-10-01T19:30:42.654Z,20.27
2022-10-01T19:41:01.739Z,23.43
2022-10-01T19:51:12.661Z,21.27
2022-10-01T20:01:20.873Z,21.03
2022-10-01T20:11:30.664Z,20.83
2022-10-01T20:21:58.277Z,22.10
2022-10-01T20:32:13.491Z,23.37
2022-10-01T20:42:23.718Z,33.10
2022-10-01T20:52:51.178Z,24.43
2022-10-01T21:03:05.259Z,22.53
2022-10-01T21:13:21.200Z,21.03
2022-10-01T21:23:42.539Z,20.87
2022-10-01T21:33:54.437Z,19.73
2022-10-01T21:44:10.811Z,19.30
2022-10-01T21:54:42.926Z,18.33
2022-10-01T22:04:52.184Z,17.47
2022-10-01T22:14:55.968Z,16.77
2022-10-01T22:25:00.601Z,15.60
2022-10-01T22:35:12.640Z,14.73
2022-10-01T22:45:18.137Z,13.30
2022-10-01T22:55:51.654Z,10.87
2022-10-01T23:05:56.927Z,9.70
2022-10-01T23:16:29.654Z,8.30
2022-10-01T23:26:44.120Z,8.33
2022-10-01T23:36:49.718Z,8.40
2022-10-01T23:46:54.720Z,7.13
2022-10-01T23:57:06.223Z,6.50
